Time;durP1;ratioP1;P1;durP2;ratioP2;P2;SDS_P1;SDS_P2;PMS_P1;PMS_P2;Temp;Humidity;BMP_temperature;BMP_pressure;BME280_temperature;BME280_humidity;BME280_pressure;Samples;Min_cycle;Max_cycle;Signal;HPM_P1;HPM_P2
2024/02/08 00:00:07;;;;;;;60.35;29.85;;;;;;;7.08;66.52;99572.44;5029859;28;20520;-79
2024/02/08 00:02:33;;;;;;;53.97;25.10;;;;;;;7.13;65.45;99577.97;5062276;28;20033;-78
2024/02/08 00:04:58;;;;;;;47.85;24.75;;;;;;;6.58;67.35;99565.00;5031711;28;20032;-78
2024/02/08 00:07:24;;;;;;;48.17;25.40;;;;;;;6.36;68.98;99577.63;5030524;28;20135;-78
2024/02/08 00:09:51;;;;;;;72.35;33.45;;;;;;;6.62;67.62;99574.16;5030486;28;20465;-78
2024/02/08 00:12:16;;;;;;;46.13;24.10;;;;;;;7.08;66.63;99575.09;5038776;28;20512;-78
2024/02/08 00:14:42;;;;;;;37.75;21.60;;;;;;;7.52;64.55;99585.97;5048217;28;20053;-78
2024/02/08 00:17:07;;;;;;;29.75;18.27;;;;;;;7.59;63.97;99582.25;5037467;28;20032;-79
2024/02/08 00:19:32;;;;;;;32.25;17.55;;;;;;;7.62;63.22;99589.81;5039965;28;20095;-78
2024/02/08 00:21:58;;;;;;;30.77;17.23;;;;;;;7.49;62.67;99576.59;5038695;28;20049;-79
2024/02/08 00:24:23;;;;;;;32.78;19.30;;;;;;;7.54;62.10;99574.13;5039373;28;20041;-78
2024/02/08 00:26:49;;;;;;;36.40;18.73;;;;;;;7.28;63.10;99560.97;5039234;28;20037;-78
2024/02/08 00:29:14;;;;;;;28.52;17.70;;;;;;;7.61;62.28;99571.44;5039163;28;20069;-78
2024/02/08 00:31:42;;;;;;;31.75;18.23;;;;;;;7.41;62.83;99555.59;5038609;28;20026;-79
2024/02/08 00:34:07;;;;;;;28.42;15.73;;;;;;;7.70;61.94;99572.00;5039759;28;20033;-78
2024/02/08 00:36:33;;;;;;;31.70;17.17;;;;;;;7.53;62.58;99571.69;5040047;28;20025;-78
2024/02/08 00:38:58;;;;;;;32.90;18.20;;;;;;;7.16;63.74;99545.69;5039403;28;20037;-78
2024/02/08 00:41:24;;;;;;;28.95;16.13;;;;;;;7.57;62.85;99584.31;5038553;28;20045;-77
2024/02/08 00:43:53;;;;;;;27.77;15.38;;;;;;;7.40;63.30;99569.91;5024543;28;20056;-78
2024/02/08 00:46:19;;;;;;;26.25;15.32;;;;;;;7.34;63.07;99562.78;5031557;28;20056;-78
2024/02/08 00:48:45;;;;;;;29.60;16.42;;;;;;;7.26;62.50;99533.84;5039374;28;20651;-78
2024/02/08 00:51:10;;;;;;;27.38;17.48;;;;;;;7.37;63.22;99557.84;5037170;28;20692;-78
2024/02/08 00:53:35;;;;;;;27.80;15.65;;;;;;;7.11;63.84;99534.91;5038401;28;20036;-78
2024/02/08 00:56:02;;;;;;;29.27;16.50;;;;;;;6.72;65.91;99549.91;5037389;28;20028;-78
2024/02/08 00:58:28;;;;;;;29.95;16.55;;;;;;;6.28;68.00;99548.69;5035929;28;20041;-78
2024/02/08 01:00:53;;;;;;;29.92;16.88;;;;;;;6.06;69.63;99557.84;5033630;28;20024;-78
2024/02/08 01:03:23;;;;;;;26.40;15.25;;;;;;;6.47;69.74;99572.72;5031981;28;20406;-78
2024/02/08 01:05:51;;;;;;;25.67;12.88;;;;;;;6.39;69.31;99558.66;5032619;28;20025;-78
2024/02/08 01:08:17;;;;;;;23.48;12.80;;;;;;;6.11;69.91;99552.75;5030142;28;20033;-78
2024/02/08 01:10:42;;;;;;;26.75;13.45;;;;;;;5.90;71.90;99535.19;5028913;28;20033;-78
2024/02/08 01:13:08;;;;;;;24.55;14.27;;;;;;;6.14;71.04;99525.88;5035827;28;20036;-79
2024/02/08 01:15:35;;;;;;;27.35;14.00;;;;;;;6.52;71.91;99559.69;5046748;28;20052;-78
2024/02/08 01:18:03;;;;;;;29.57;14.53;;;;;;;6.04;74.01;99563.31;5029171;28;20032;-78
2024/02/08 01:20:31;;;;;;;30.20;15.20;;;;;;;6.27;72.75;99547.06;5028354;28;20268;-79
2024/02/08 01:22:59;;;;;;;29.30;14.73;;;;;;;6.29;73.52;99560.09;5028226;28;20087;-78
2024/02/08 01:25:25;;;;;;;33.70;16.70;;;;;;;6.31;73.43;99558.88;5027780;28;20033;-78
2024/02/08 01:27:50;;;;;;;31.08;15.85;;;;;;;6.02;75.13;99566.16;5030155;28;20256;-79
2024/02/08 01:30:15;;;;;;;28.83;15.48;;;;;;;6.03;75.33;99553.78;5027785;28;20035;-79
2024/02/08 01:32:41;;;;;;;25.27;15.13;;;;;;;6.39;74.37;99561.31;5027926;28;20037;-78
2024/02/08 01:35:10;;;;;;;28.90;16.13;;;;;;;6.34;74.32;99576.19;5027565;28;20037;-79
2024/02/08 01:37:38;;;;;;;28.38;14.60;;;;;;;6.46;72.13;99563.16;5027761;28;20057;-78
2024/02/08 01:40:06;;;;;;;29.58;14.65;;;;;;;6.41;71.78;99550.53;5027026;28;20045;-78
2024/02/08 01:42:32;;;;;;;23.55;14.25;;;;;;;6.39;71.63;99574.56;5027032;28;20025;-79
2024/02/08 01:45:23;;;;;;;32.35;15.15;;;;;;;6.48;70.68;99574.34;5027458;28;20083;-79
2024/02/08 01:47:49;;;;;;;32.28;17.50;;;;;;;6.38;70.07;99538.50;5027631;28;20494;-78
2024/02/08 01:50:15;;;;;;;31.92;17.98;;;;;;;6.66;67.95;99553.38;5027504;28;20036;-78
2024/02/08 01:52:42;;;;;;;27.63;16.73;;;;;;;6.45;68.91;99549.09;5027493;28;20029;-78
2024/02/08 01:55:09;;;;;;;24.88;15.02;;;;;;;6.07;69.77;99540.94;5008030;28;20032;-79
2024/02/08 01:57:36;;;;;;;26.88;16.10;;;;;;;6.49;68.95;99549.50;5022244;28;20025;-78
2024/02/08 02:00:01;;;;;;;27.25;15.40;;;;;;;6.11;70.20;99555.38;5027527;28;20478;-79
2024/02/08 02:02:30;;;;;;;28.88;16.00;;;;;;;5.99;70.48;99534.81;5027496;28;20108;-79
2024/02/08 02:04:56;;;;;;;26.15;15.40;;;;;;;6.11;70.88;99563.31;5027545;28;20026;-78
2024/02/08 02:07:23;;;;;;;27.45;15.20;;;;;;;6.22;69.53;99538.91;5037184;28;20577;-78
2024/02/08 02:09:48;;;;;;;30.77;15.63;;;;;;;5.94;69.33;99526.63;5046876;28;20090;-78
2024/02/08 02:12:16;;;;;;;29.77;16.33;;;;;;;5.51;71.98;99526.94;5045963;28;20055;-78
2024/02/08 02:14:44;;;;;;;28.23;17.27;;;;;;;5.58;72.00;99525.16;5032136;28;20475;-79
2024/02/08 02:17:15;;;;;;;30.27;16.50;;;;;;;5.31;73.65;99536.63;5025837;28;20046;-78
2024/02/08 02:19:42;;;;;;;21.48;14.18;;;;;;;5.30;73.55;99537.66;5027206;28;20030;-79
2024/02/08 02:22:09;;;;;;;26.58;15.70;;;;;;;5.46;72.85;99486.25;5032272;28;20509;-79
2024/02/08 02:24:43;;;;;;;31.42;16.83;;;;;;;6.07;71.25;99530.34;5026740;28;20415;-78
2024/02/08 02:27:10;;;;;;;27.23;16.45;;;;;;;5.89;70.82;99544.97;5026787;28;20116;-78
2024/02/08 02:29:38;;;;;;;26.40;16.10;;;;;;;5.36;71.79;99513.09;5026689;28;20033;-78
2024/02/08 02:32:05;;;;;;;28.15;16.73;;;;;;;5.42;73.65;99528.16;5027372;28;20040;-79
2024/02/08 02:34:31;;;;;;;26.30;16.95;;;;;;;5.71;71.27;99536.78;5027278;28;20033;-78
2024/02/08 02:37:00;;;;;;;30.52;16.90;;;;;;;5.59;71.92;99525.97;5027040;28;20055;-78
2024/02/08 02:39:30;;;;;;;28.13;15.13;;;;;;;5.99;69.99;99540.13;5027182;28;20025;-78
2024/02/08 02:41:56;;;;;;;27.00;15.60;;;;;;;5.83;70.48;99535.19;5017233;28;20121;-79
2024/02/08 02:44:22;;;;;;;26.33;16.02;;;;;;;5.73;70.00;99517.03;5015697;28;20175;-78
2024/02/08 02:46:49;;;;;;;24.17;14.65;;;;;;;5.37;71.99;99541.97;5026548;28;20037;-78
2024/02/08 02:49:17;;;;;;;23.90;13.20;;;;;;;5.42;72.10;99514.94;5026673;28;20032;-78
2024/02/08 02:51:48;;;;;;;23.10;12.98;;;;;;;4.69;73.51;99502.19;5027132;28;20026;-79
2024/02/08 02:54:16;;;;;;;24.08;13.55;;;;;;;5.40;71.88;99525.69;5030388;28;20040;-79
2024/02/08 02:56:50;;;;;;;;;;;;;;;4.49;73.82;99536.38;5030377;28;20056;-78
2024/02/08 02:59:16;;;;;;;25.85;14.50;;;;;;;3.77;74.55;99540.03;5030488;28;19922;-78
2024/02/08 03:01:49;;;;;;;25.77;16.77;;;;;;;3.94;74.26;99515.06;5030503;28;20029;-79
2024/02/08 03:04:17;;;;;;;25.25;15.32;;;;;;;3.73;76.72;99547.50;5028855;28;20915;-78
2024/02/08 03:06:45;;;;;;;22.20;13.68;;;;;;;3.67;77.99;99550.06;5029289;28;20037;-78
2024/02/08 03:09:15;;;;;;;23.77;13.57;;;;;;;3.16;78.91;99550.88;5032067;28;20076;-78
2024/02/08 03:11:47;;;;;;;28.95;14.43;;;;;;;3.90;76.46;99534.88;5029457;28;20033;-78
2024/02/08 03:14:15;;;;;;;28.65;18.17;;;;;;;4.09;75.49;99517.59;5029597;28;20080;-79
2024/02/08 03:16:41;;;;;;;36.85;16.85;;;;;;;3.82;78.92;99554.28;5029848;28;20548;-78
2024/02/08 03:19:06;;;;;;;29.83;16.48;;;;;;;4.37;76.41;99538.75;5028301;28;20460;-80
2024/02/08 03:21:40;;;;;;;29.35;16.15;;;;;;;4.43;75.74;99522.16;5029793;28;20112;-79
2024/02/08 03:24:09;;;;;;;29.13;15.23;;;;;;;4.33;76.35;99537.50;5031410;28;20379;-78
2024/02/08 03:26:46;;;;;;;27.63;15.32;;;;;;;4.51;76.42;99531.72;5049113;28;20585;-79
2024/02/08 03:29:13;;;;;;;26.50;15.73;;;;;;;4.89;74.70;99543.78;5031426;28;20029;-79
2024/02/08 03:31:47;;;;;;;36.20;19.67;;;;;;;4.95;74.11;99509.44;5029597;28;20057;-78
2024/02/08 03:34:31;;;;;;;33.10;17.75;;;;;;;4.88;75.78;99545.56;5031237;28;20040;-79
2024/02/08 03:36:57;;;;;;;34.72;18.48;;;;;;;5.09;75.15;99551.78;5029348;28;20026;-79
2024/02/08 03:39:25;;;;;;;30.27;17.40;;;;;;;5.01;74.77;99552.78;5039160;28;20037;-79
2024/02/08 03:41:57;;;;;;;37.90;17.85;;;;;;;4.91;75.11;99553.13;5049636;28;20029;-80
2024/02/08 03:44:23;;;;;;;44.30;21.55;;;;;;;4.71;78.37;99563.56;5046159;28;20029;-79
2024/02/08 03:46:53;;;;;;;37.63;19.08;;;;;;;4.26;78.15;99525.25;5029324;28;20033;-79
2024/02/08 03:49:19;;;;;;;32.58;18.75;;;;;;;4.45;77.88;99537.78;5031385;28;20026;-80
2024/02/08 03:51:47;;;;;;;55.13;26.65;;;;;;;4.54;78.44;99535.81;5029240;28;20064;-79
2024/02/08 03:54:16;;;;;;;;;;;;;;;4.71;77.56;99553.00;5029781;28;20033;-79
2024/02/08 03:56:43;;;;;;;39.55;19.77;;;;;;;4.49;77.03;99511.81;5029028;28;20357;-79
2024/02/08 03:59:11;;;;;;;37.28;18.58;;;;;;;4.55;76.58;99517.13;5028641;28;20033;-78
2024/02/08 04:01:37;;;;;;;34.47;17.27;;;;;;;4.77;77.86;99540.84;5029374;28;20033;-79
2024/02/08 04:04:12;;;;;;;39.35;18.67;;;;;;;4.54;77.63;99525.25;5028384;28;20036;-79
2024/02/08 04:06:50;;;;;;;39.60;18.15;;;;;;;4.67;77.05;99527.97;5027469;28;20071;-79
2024/02/08 04:09:33;;;;;;;34.83;18.08;;;;;;;4.15;78.78;99521.31;5028984;28;20065;-79
2024/02/08 04:55:53;;;;;;;37.80;17.60;;;;;;;2.35;88.60;99556.84;5027964;28;20510;-79
2024/02/08 04:58:19;;;;;;;37.88;18.80;;;;;;;2.85;85.38;99551.09;5027784;28;20037;-78
2024/02/08 05:00:45;;;;;;;36.38;17.60;;;;;;;3.04;84.58;99550.53;5028323;28;20069;-79
2024/02/08 05:03:10;;;;;;;35.75;17.95;;;;;;;3.12;83.05;99539.88;5027863;28;20100;-79
2024/02/08 05:05:43;;;;;;;37.88;20.63;;;;;;;3.40;82.02;99566.41;5028226;28;20029;-78
2024/02/08 05:08:09;;;;;;;34.60;19.67;;;;;;;2.73;86.35;99569.94;5026367;28;20026;-78
2024/02/08 05:10:35;;;;;;;48.90;21.58;;;;;;;2.29;88.28;99557.53;5029880;28;20025;-79
2024/02/08 05:13:04;;;;;;;50.90;29.27;;;;;;;2.42;87.34;99525.34;5026211;28;20022;-78
2024/02/08 05:15:33;;;;;;;41.33;22.27;;;;;;;3.01;84.30;99528.00;5027182;28;20084;-79
2024/02/08 05:17:58;;;;;;;40.33;20.65;;;;;;;3.25;83.36;99559.50;5027395;28;20033;-79
2024/02/08 05:20:25;;;;;;;37.55;20.70;;;;;;;3.46;81.97;99578.03;5026691;28;20036;-79
2024/02/08 05:22:51;;;;;;;36.08;20.63;;;;;;;3.18;83.18;99556.78;5027858;28;20060;-79
2024/02/08 05:25:20;;;;;;;36.38;20.00;;;;;;;3.49;82.39;99575.00;5027698;28;20057;-79
2024/02/08 05:27:46;;;;;;;43.58;21.02;;;;;;;3.45;82.45;99573.75;5027391;28;20175;-78
2024/02/08 05:30:14;;;;;;;43.17;20.25;;;;;;;3.54;81.12;99564.75;5025686;28;20029;-79
2024/02/08 05:32:40;;;;;;;42.28;23.08;;;;;;;3.72;80.70;99571.41;5027207;28;20030;-79
2024/02/08 05:35:06;;;;;;;43.63;21.73;;;;;;;3.61;79.96;99567.44;5027648;28;20048;-79
2024/02/08 05:37:31;;;;;;;50.65;24.80;;;;;;;3.57;80.68;99588.09;5076211;28;20171;-78
2024/02/08 05:39:57;;;;;;;52.90;26.35;;;;;;;2.71;84.49;99571.94;5039015;28;20041;-79
2024/02/08 05:42:24;;;;;;;47.33;22.13;;;;;;;2.47;85.89;99586.16;5027560;28;20121;-80
2024/02/08 05:44:50;;;;;;;51.80;25.00;;;;;;;2.94;84.10;99581.59;5027535;28;20025;-78
2024/02/08 05:47:25;;;;;;;48.67;27.13;;;;;;;3.66;79.66;99606.44;5014895;28;20029;-79
2024/02/08 05:49:53;;;;;;;60.25;29.23;;;;;;;3.70;77.52;99586.59;5021823;28;20033;-79
2024/02/08 05:52:18;;;;;;;64.90;39.40;;;;;;;3.78;76.75;99583.84;5010389;28;20032;-79
2024/02/08 05:54:45;;;;;;;59.00;30.63;;;;;;;3.76;76.13;99577.94;5019891;28;20117;-79
2024/02/08 05:57:14;;;;;;;52.72;26.88;;;;;;;3.51;78.00;99612.56;5027110;28;20017;-79
2024/02/08 05:59:44;;;;;;;47.60;25.42;;;;;;;3.04;80.92;99607.66;5026871;28;20112;-79
2024/02/08 06:02:22;;;;;;;49.85;25.55;;;;;;;3.69;77.67;99590.25;5027869;28;20037;-78
2024/02/08 06:04:56;;;;;;;50.55;26.65;;;;;;;4.22;75.97;99635.66;5027002;28;20522;-78
2024/02/08 06:07:29;;;;;;;58.05;28.02;;;;;;;4.00;75.30;99598.72;5027303;28;20032;-78
2024/02/08 06:10:07;;;;;;;58.60;30.05;;;;;;;4.19;73.72;99585.91;5027262;28;20450;-79
2024/02/08 06:12:51;;;;;;;66.90;31.45;;;;;;;4.54;74.32;99621.13;5027255;28;20017;-79
2024/02/08 06:15:24;;;;;;;65.93;33.65;;;;;;;3.89;76.29;99612.41;5026793;28;20045;-80
2024/02/08 06:18:06;;;;;;;54.30;26.63;;;;;;;3.89;76.83;99601.03;5026584;28;20522;-79
2024/02/08 06:20:43;;;;;;;43.40;22.45;;;;;;;3.53;79.39;99601.81;5025198;28;20040;-78
2024/02/08 06:23:23;;;;;;;62.13;30.85;;;;;;;3.27;80.04;99612.84;5027311;28;20021;-78
2024/02/08 06:28:46;;;;;;;67.90;33.17;;;;;;;3.07;82.02;99597.59;5030529;28;20084;-78
2024/02/08 06:31:17;;;;;;;83.57;42.40;;;;;;;3.22;82.63;99595.75;5030955;28;20037;-78
2024/02/08 06:34:10;;;;;;;60.70;31.75;;;;;;;3.65;81.38;99625.91;5030594;28;20099;-79
2024/02/08 06:36:33;;;;;;;81.55;42.30;;;;;;;3.54;82.78;99614.84;5030202;28;20112;-79
2024/02/08 06:39:19;;;;;;;65.18;32.83;;;;;;;3.96;82.06;99636.19;5019597;28;20077;-79
2024/02/08 06:41:52;;;;;;;74.38;36.78;;;;;;;3.80;82.66;99613.50;5031393;28;20056;-80
2024/02/08 07:39:35;;;;;;;39.58;23.35;;;;;;;7.58;68.29;99657.59;5033807;28;20180;-78
2024/02/08 07:42:17;;;;;;;40.75;23.45;;;;;;;7.27;70.21;99646.84;5034490;28;20478;-78
2024/02/08 07:44:48;;;;;;;39.15;22.20;;;;;;;7.34;69.88;99648.47;5035662;28;20029;-79
2024/02/08 07:47:17;;;;;;;33.05;20.60;;;;;;;7.55;69.76;99659.84;5036965;28;20554;-78
2024/02/08 07:49:42;;;;;;;31.85;18.88;;;;;;;7.77;69.56;99658.56;5037528;28;20036;-78
2024/02/08 07:57:48;;;;;;;41.85;22.13;;;;;;;8.74;65.40;99625.69;5038016;28;20044;-79
2024/02/08 08:03:31;;;;;;;33.35;20.10;;;;;;;9.28;64.88;99663.28;5035771;28;20045;-79
2024/02/08 08:05:56;;;;;;;28.33;17.38;;;;;;;9.30;63.45;99655.88;5037373;28;20036;-78
2024/02/08 08:08:25;;;;;;;27.30;17.40;;;;;;;9.64;62.38;99673.94;5038840;28;20083;-78
2024/02/08 08:11:02;;;;;;;28.02;17.48;;;;;;;9.61;62.33;99660.25;5037274;28;20025;-79
2024/02/08 08:18:57;;;;;;;31.08;23.50;;;;;;;10.25;59.09;99668.66;5028519;28;20510;-78
2024/02/08 08:21:27;;;;;;;29.65;21.92;;;;;;;10.61;57.59;99673.09;5026452;28;20048;-79
2024/02/08 08:24:02;;;;;;;26.50;17.77;;;;;;;10.65;56.81;99676.13;5007442;28;20494;-77
2024/02/08 08:26:39;;;;;;;30.70;23.77;;;;;;;10.67;55.63;99652.69;5008792;28;20061;-78
2024/02/08 08:29:13;;;;;;;28.35;20.45;;;;;;;10.81;55.36;99678.13;5019925;28;20040;-79
2024/02/08 08:31:51;;;;;;;26.30;17.27;;;;;;;10.98;53.92;99677.44;5024452;28;20108;-79
2024/02/08 08:37:39;;;;;;;25.23;17.35;;;;;;;10.90;55.04;99643.09;5032406;28;20036;-78
2024/02/08 08:40:20;;;;;;;26.08;15.15;;;;;;;11.18;53.65;99677.91;5030962;28;20037;-78
2024/02/08 08:42:49;;;;;;;28.17;17.13;;;;;;;11.24;53.29;99649.50;5028210;28;20873;-78
2024/02/08 08:45:18;;;;;;;28.58;19.67;;;;;;;11.54;52.98;99665.34;5035324;28;20060;-78
2024/02/08 08:48:00;;;;;;;22.20;14.43;;;;;;;11.66;52.33;99682.16;5034712;28;20094;-78
2024/02/08 08:50:31;;;;;;;21.63;14.70;;;;;;;11.64;52.27;99660.19;5007068;28;20033;-78
2024/02/08 08:52:58;;;;;;;24.77;14.93;;;;;;;12.15;51.10;99654.28;5027916;28;20037;-78
2024/02/08 08:55:24;;;;;;;18.98;12.20;;;;;;;12.54;47.72;99657.09;5027732;28;20025;-78
2024/02/08 08:58:00;;;;;;;17.48;12.27;;;;;;;12.72;48.07;99638.13;5027693;28;20029;-78
2024/02/08 09:00:32;;;;;;;20.65;12.55;;;;;;;12.88;47.01;99670.50;5027181;28;20044;-78
2024/02/08 09:03:04;;;;;;;17.95;12.20;;;;;;;12.83;48.56;99655.16;5027388;28;20029;-79
2024/02/08 09:05:36;;;;;;;21.95;12.73;;;;;;;13.37;47.10;99670.72;5027677;28;20060;-78
2024/02/08 09:08:08;;;;;;;19.25;12.75;;;;;;;13.77;46.55;99658.91;5027881;28;20029;-78
2024/02/08 09:10:40;;;;;;;16.92;11.77;;;;;;;14.24;45.57;99661.03;5027252;28;20033;-78
2024/02/08 09:13:07;;;;;;;18.55;12.38;;;;;;;14.64;44.44;99651.78;5029753;28;20601;-77
2024/02/08 09:15:55;;;;;;;18.80;11.38;;;;;;;14.75;44.85;99666.91;5026954;28;20494;-77
2024/02/08 09:18:46;;;;;;;18.67;9.27;;;;;;;15.08;41.67;99656.94;5059451;28;20521;-78
2024/02/08 09:21:10;;;;;;;12.25;8.13;;;;;;;15.15;39.94;99654.84;5026576;28;20050;-78
2024/02/08 09:23:36;;;;;;;15.00;8.38;;;;;;;15.46;38.98;99660.38;5025284;28;20457;-77
2024/02/08 09:26:04;;;;;;;15.93;9.35;;;;;;;15.63;40.11;99662.88;5027189;28;20491;-76
2024/02/08 09:28:35;;;;;;;13.05;9.18;;;;;;;15.79;39.77;99635.03;5027175;28;20021;-77
2024/02/08 09:31:12;;;;;;;12.48;9.38;;;;;;;15.71;38.83;99650.81;5027514;28;20112;-77
2024/02/08 09:34:00;;;;;;;18.25;10.18;;;;;;;15.65;40.31;99639.22;5039439;28;20610;-77
2024/02/08 09:36:26;;;;;;;;;;;;;;;15.91;38.88;99637.47;5048136;28;20033;-78
2024/02/08 09:38:51;;;;;;;13.38;9.23;;;;;;;16.01;39.12;99632.13;5077752;28;19908;-77
2024/02/08 09:41:24;;;;;;;16.13;8.93;;;;;;;16.27;38.90;99629.50;5027301;28;20034;-78
2024/02/08 09:43:56;;;;;;;12.60;8.02;;;;;;;16.30;37.21;99623.56;5027578;28;20132;-77
2024/02/08 09:49:17;;;;;;;14.85;8.18;;;;;;;16.26;36.88;99625.19;5026977;28;20064;-78
2024/02/08 09:51:55;;;;;;;13.93;9.70;;;;;;;16.70;37.20;99603.13;5027396;28;20025;-77
2024/02/08 09:54:30;;;;;;;14.32;7.88;;;;;;;17.01;35.77;99611.19;5026811;28;20127;-78
2024/02/08 09:57:20;;;;;;;11.77;7.88;;;;;;;16.99;35.79;99605.28;5027210;28;20030;-78
2024/02/08 09:59:59;;;;;;;11.57;7.43;;;;;;;16.46;37.51;99574.06;5026709;28;20162;-79
2024/02/08 10:02:35;;;;;;;13.13;7.07;;;;;;;17.07;35.87;99602.81;5030200;28;20104;-78
2024/02/08 10:05:19;;;;;;;12.07;7.72;;;;;;;17.11;35.24;99613.06;5011487;28;20057;-78
2024/02/08 10:08:05;;;;;;;10.68;7.15;;;;;;;17.22;35.57;99607.38;5011133;28;20108;-78
2024/02/08 10:10:33;;;;;;;12.10;7.30;;;;;;;17.47;34.65;99590.31;5023545;28;20079;-78
2024/02/08 10:13:05;;;;;;;12.23;7.07;;;;;;;17.82;35.31;99587.72;5028957;28;20410;-77
2024/02/08 10:15:40;;;;;;;18.08;10.70;;;;;;;18.12;33.50;99596.72;5030933;28;20058;-78
2024/02/08 10:18:22;;;;;;;21.23;12.98;;;;;;;18.49;33.21;99585.41;5030758;28;20120;-78
2024/02/08 10:20:49;;;;;;;10.32;6.78;;;;;;;18.30;32.71;99593.34;5030513;28;20040;-78
2024/02/08 10:23:35;;;;;;;19.05;11.15;;;;;;;18.48;33.47;99592.66;5032682;28;20037;-77
2024/02/08 10:26:19;;;;;;;20.13;12.68;;;;;;;18.34;32.35;99567.41;5031052;28;20033;-77
2024/02/08 10:28:54;;;;;;;16.20;10.55;;;;;;;18.10;33.38;99578.13;5030508;28;20025;-78
2024/02/08 10:31:28;;;;;;;14.32;10.02;;;;;;;18.34;33.75;99569.31;5030293;28;20506;-78
2024/02/08 10:34:08;;;;;;;13.07;9.32;;;;;;;18.55;32.35;99561.84;5030476;28;20033;-77
2024/02/08 10:36:44;;;;;;;19.35;10.43;;;;;;;19.22;32.48;99570.09;5030575;28;20030;-78
2024/02/08 10:39:23;;;;;;;15.43;9.82;;;;;;;19.55;31.73;99579.13;5029740;28;20025;-78
2024/02/08 10:41:58;;;;;;;15.00;9.20;;;;;;;19.39;31.36;99569.63;5031479;28;20033;-77
2024/02/08 10:44:34;;;;;;;12.55;8.15;;;;;;;20.01;30.23;99551.47;5025184;28;20037;-79
2024/02/08 10:47:12;;;;;;;10.65;7.18;;;;;;;20.48;29.44;99563.19;5010413;28;20053;-78
2024/02/08 10:49:42;;;;;;;17.00;8.73;;;;;;;20.39;29.29;99559.56;5014562;28;20056;-79
2024/02/08 10:52:11;;;;;;;17.23;9.55;;;;;;;19.98;30.27;99543.97;5030330;28;20022;-79
2024/02/08 10:54:48;;;;;;;14.65;8.15;;;;;;;20.13;29.58;99550.25;5030969;28;20038;-79
2024/02/08 10:59:59;;;;;;;11.38;6.30;;;;;;;20.46;29.86;99541.00;5032546;28;20028;-78
2024/02/08 11:02:32;;;;;;;12.55;6.78;;;;;;;20.04;29.31;99518.44;5030307;28;20033;-78
2024/02/08 11:08:07;;;;;;;16.30;8.98;;;;;;;20.57;29.30;99494.78;5028620;28;20069;-77
2024/02/08 11:10:33;;;;;;;14.77;7.57;;;;;;;20.87;28.47;99498.84;5029680;28;20025;-77
2024/02/08 11:13:10;;;;;;;15.05;7.93;;;;;;;20.51;28.83;99507.59;5030390;28;20048;-78
2024/02/08 11:15:40;;;;;;;14.95;8.45;;;;;;;20.71;28.63;99490.19;5029750;28;20072;-80
2024/02/08 11:18:25;;;;;;;14.23;7.35;;;;;;;21.03;28.69;99496.66;5029680;28;20036;-77
2024/02/08 11:21:03;;;;;;;12.55;7.38;;;;;;;21.36;27.69;99489.16;5029352;28;20064;-78
2024/02/08 11:23:31;;;;;;;12.40;7.40;;;;;;;21.34;27.62;99485.16;5029636;28;20036;-77
2024/02/08 11:26:06;;;;;;;13.63;7.50;;;;;;;21.39;27.76;99498.59;5030214;28;20037;-78
2024/02/08 11:28:44;;;;;;;13.60;9.05;;;;;;;21.62;28.28;99475.84;5028969;28;20593;-78
2024/02/08 11:31:13;;;;;;;10.10;6.20;;;;;;;22.15;26.89;99493.31;5029745;28;20547;-79
2024/02/08 11:33:40;;;;;;;12.85;6.47;;;;;;;21.91;27.13;99465.69;5028960;28;20533;-78
2024/02/08 11:36:13;;;;;;;10.32;5.80;;;;;;;22.32;26.36;99487.22;5010009;28;20483;-78
2024/02/08 11:38:40;;;;;;;8.70;4.85;;;;;;;22.21;26.39;99480.41;5009310;28;20507;-78
2024/02/08 11:41:10;;;;;;;9.05;5.82;;;;;;;22.74;25.16;99448.88;5017170;28;20795;-78
2024/02/08 11:43:47;;;;;;;10.27;5.35;;;;;;;22.63;25.76;99451.88;5029134;28;20748;-78
2024/02/08 11:46:18;;;;;;;8.30;4.95;;;;;;;22.83;25.39;99479.63;5028993;28;20030;-78
2024/02/08 11:48:46;;;;;;;8.57;4.38;;;;;;;22.93;25.46;99459.50;5028811;28;21256;-78
2024/02/08 11:51:13;;;;;;;8.45;4.35;;;;;;;23.16;23.95;99471.88;5029254;28;20025;-78
2024/02/08 11:53:39;;;;;;;9.27;4.28;;;;;;;23.13;24.26;99460.84;5028801;28;20083;-79
2024/02/08 11:56:10;;;;;;;8.05;4.50;;;;;;;23.01;24.43;99462.25;5029004;28;20036;-78
2024/02/08 11:58:49;;;;;;;10.10;6.80;;;;;;;23.97;24.22;99451.44;5028860;28;20040;-78
2024/02/08 12:01:17;;;;;;;12.23;5.55;;;;;;;23.08;24.51;99453.63;5029264;28;20164;-78
2024/02/08 12:03:43;;;;;;;;;;;;;;;23.31;23.24;99461.66;5029173;28;20505;-78
2024/02/08 12:06:17;;;;;;;8.35;4.25;;;;;;;23.49;23.77;99446.94;5011355;28;19922;-78
2024/02/08 12:09:02;;;;;;;6.60;3.83;;;;;;;23.52;24.04;99440.06;5007755;28;20509;-78
2024/02/08 12:11:31;;;;;;;7.75;4.15;;;;;;;23.97;23.45;99443.25;5016708;28;20656;-79
2024/02/08 12:14:07;;;;;;;7.03;4.00;;;;;;;23.37;24.28;99433.19;5028226;28;20525;-78
2024/02/08 12:16:33;;;;;;;11.48;5.28;;;;;;;23.02;25.20;99433.94;5028491;28;20095;-79
2024/02/08 12:19:05;;;;;;;10.93;4.35;;;;;;;22.31;25.04;99420.41;5028581;28;20459;-79
2024/02/08 12:21:35;;;;;;;10.38;5.75;;;;;;;22.47;26.14;99407.22;5028449;28;20022;-77
2024/02/08 12:24:03;;;;;;;11.15;5.45;;;;;;;22.70;25.31;99399.78;5027770;28;20045;-78
2024/02/08 12:26:32;;;;;;;8.95;4.93;;;;;;;23.86;23.80;99417.47;5028503;28;20022;-78
2024/02/08 12:29:02;;;;;;;10.63;4.50;;;;;;;23.66;24.28;99403.41;5028468;28;20060;-77
2024/02/08 12:31:32;;;;;;;7.88;3.90;;;;;;;23.04;25.01;99398.28;5028338;28;20033;-77
2024/02/08 12:34:03;;;;;;;9.18;4.63;;;;;;;23.45;24.06;99397.00;5027734;28;20037;-77
2024/02/08 12:36:31;;;;;;;8.45;4.50;;;;;;;23.83;23.48;99407.25;5028381;28;20041;-79
2024/02/08 12:39:00;;;;;;;9.50;4.30;;;;;;;24.55;23.03;99402.06;5028569;28;20026;-77
2024/02/08 12:41:29;;;;;;;8.13;4.13;;;;;;;24.30;22.79;99382.75;5028107;28;20037;-78
2024/02/08 12:43:55;;;;;;;9.73;4.85;;;;;;;24.58;23.01;99387.75;5028172;28;20033;-78
2024/02/08 12:46:21;;;;;;;9.65;4.50;;;;;;;24.02;24.10;99387.81;5026688;28;20052;-78
2024/02/08 12:48:49;;;;;;;10.02;4.10;;;;;;;24.62;22.72;99388.69;5028028;28;20026;-77
2024/02/08 12:51:23;;;;;;;11.35;4.20;;;;;;;24.51;23.01;99373.88;5028453;28;20029;-79
2024/02/08 12:54:02;;;;;;;11.27;4.53;;;;;;;24.92;22.79;99380.50;5037867;28;20482;-79
2024/02/08 12:56:27;;;;;;;7.30;4.00;;;;;;;25.55;21.38;99384.03;5029963;28;20037;-78
2024/02/08 12:59:00;;;;;;;7.65;3.50;;;;;;;25.84;21.51;99363.19;5027787;28;20477;-78
2024/02/08 13:01:33;;;;;;;10.20;3.63;;;;;;;25.25;21.63;99370.50;5027346;28;20033;-78
2024/02/08 13:03:59;;;;;;;7.35;3.50;;;;;;;25.84;20.83;99349.53;5028061;28;20041;-78
2024/02/08 13:06:25;;;;;;;6.40;3.38;;;;;;;26.55;20.23;99372.94;5027326;28;20037;-78
2024/02/08 13:09:02;;;;;;;7.45;3.90;;;;;;;26.41;20.64;99378.75;5027565;28;20541;-78
2024/02/08 13:11:27;;;;;;;5.93;3.47;;;;;;;26.90;20.04;99353.31;5027470;28;20083;-78
2024/02/08 13:14:04;;;;;;;7.30;3.72;;;;;;;26.92;19.77;99374.88;5027475;28;20049;-78
2024/02/08 13:16:33;;;;;;;9.50;5.05;;;;;;;27.47;20.12;99367.06;5026058;28;20037;-78
2024/02/08 13:18:59;;;;;;;6.32;3.30;;;;;;;26.90;20.10;99350.56;5027223;28;20037;-78
2024/02/08 13:21:25;;;;;;;10.65;6.35;;;;;;;27.39;19.48;99355.13;5028084;28;20036;-78
2024/02/08 13:23:51;;;;;;;7.07;3.63;;;;;;;27.71;19.54;99366.16;5027402;28;20034;-77
2024/02/08 13:26:17;;;;;;;5.95;3.35;;;;;;;27.69;19.36;99360.25;5037417;28;20060;-77
2024/02/08 13:28:43;;;;;;;8.63;3.60;;;;;;;28.38;18.76;99350.63;5047038;28;20113;-77
2024/02/08 13:31:08;;;;;;;5.85;3.40;;;;;;;29.54;17.65;99370.38;5047420;28;20110;-77
2024/02/08 13:33:34;;;;;;;6.18;3.80;;;;;;;30.14;17.38;99367.94;5031343;28;20037;-77
2024/02/08 13:36:08;;;;;;;7.63;3.50;;;;;;;29.89;16.82;99363.97;5026546;28;20033;-77
2024/02/08 13:38:38;;;;;;;7.10;3.58;;;;;;;30.89;16.68;99362.00;5027318;28;20029;-78
2024/02/08 13:41:09;;;;;;;9.48;6.55;;;;;;;31.18;16.22;99361.22;5027091;28;20026;-78
2024/02/08 13:43:39;;;;;;;6.97;4.30;;;;;;;31.30;16.40;99373.13;5027327;28;20120;-78
2024/02/08 13:46:06;;;;;;;9.40;4.38;;;;;;;31.38;16.11;99363.78;5027067;28;20537;-78
2024/02/08 13:48:32;;;;;;;7.35;3.20;;;;;;;31.51;16.17;99365.16;5027178;28;20037;-77